createdAt,value
2022-10-26T00:01:09.514Z,60.82
2022-10-26T00:03:42.387Z,60.12
2022-10-26T00:06:13.797Z,60.10
2022-10-26T00:08:44.571Z,60.70
2022-10-26T00:11:15.311Z,60.49
2022-10-26T00:13:46.279Z,60.17
2022-10-26T00:16:17.942Z,60.18
2022-10-26T00:18:49.515Z,60.10
2022-10-26T00:21:20.143Z,59.71
2022-10-26T00:23:51.132Z,58.75
2022-10-26T00:26:21.425Z,60.41
2022-10-26T00:28:53.974Z,63.35
2022-10-26T00:31:24.917Z,64.69
2022-10-26T00:33:56.183Z,62.33
2022-10-26T00:36:27.229Z,61.97
2022-10-26T00:38:58.450Z,62.00
2022-10-26T00:41:30.390Z,61.50
2022-10-26T00:44:01.378Z,61.05
2022-10-26T00:46:33.574Z,60.33
2022-10-26T00:49:06.734Z,59.78
2022-10-26T00:51:39.590Z,58.34
2022-10-26T00:54:12.369Z,59.41
2022-10-26T00:56:43.353Z,61.83
2022-10-26T00:59:15.824Z,65.93
2022-10-26T01:01:47.894Z,65.65
2022-10-26T01:04:19.845Z,63.52
2022-10-26T01:06:50.331Z,62.06
2022-10-26T01:09:21.734Z,61.20
2022-10-26T01:11:52.215Z,60.25
2022-10-26T01:14:23.821Z,59.77
2022-10-26T01:16:58.955Z,58.48
2022-10-26T01:19:52.126Z,59.88
2022-10-26T01:22:23.923Z,64.74
2022-10-26T01:25:04.113Z,64.59
2022-10-26T01:27:35.623Z,63.02
2022-10-26T01:30:26.940Z,61.85
2022-10-26T01:33:13.474Z,61.12
2022-10-26T01:35:49.304Z,60.24
2022-10-26T01:38:23.782Z,59.34
2022-10-26T01:41:00.138Z,58.12
2022-10-26T01:43:33.998Z,60.53
2022-10-26T01:46:05.496Z,64.63
2022-10-26T01:48:37.508Z,65.35
2022-10-26T01:51:08.901Z,63.31
2022-10-26T01:53:43.287Z,61.61
2022-10-26T01:56:19.477Z,60.28
2022-10-26T01:59:05.929Z,59.15
2022-10-26T02:01:43.177Z,61.36
2022-10-26T02:04:18.636Z,65.59
2022-10-26T02:06:54.919Z,64.82
2022-10-26T02:09:29.484Z,63.94
2022-10-26T02:12:01.106Z,62.09
2022-10-26T02:14:35.627Z,61.39
2022-10-26T02:17:08.432Z,61.50
2022-10-26T02:19:42.126Z,61.58
2022-10-26T02:22:15.180Z,61.82
2022-10-26T02:24:46.240Z,61.53
2022-10-26T02:27:20.423Z,61.06
2022-10-26T02:29:52.308Z,61.23
2022-10-26T02:32:23.790Z,60.83
2022-10-26T02:34:55.103Z,60.32
2022-10-26T02:37:27.403Z,60.20
2022-10-26T02:39:58.941Z,60.29
2022-10-26T02:42:29.781Z,60.25
2022-10-26T02:45:02.047Z,59.85
2022-10-26T02:47:33.084Z,59.81
2022-10-26T02:50:03.831Z,59.63
2022-10-26T02:52:38.235Z,58.71
2022-10-26T02:55:10.631Z,60.55
2022-10-26T02:57:42.765Z,65.32
2022-10-26T03:00:15.413Z,65.42
2022-10-26T03:02:48.569Z,62.98
2022-10-26T03:05:20.806Z,62.11
2022-10-26T03:07:51.469Z,62.14
2022-10-26T03:10:21.965Z,61.77
2022-10-26T03:12:53.595Z,62.23
2022-10-26T03:15:24.260Z,62.62
2022-10-26T03:17:55.487Z,61.71
2022-10-26T03:20:26.123Z,60.61
2022-10-26T03:22:57.287Z,60.81
2022-10-26T03:25:28.305Z,61.42
2022-10-26T03:27:59.394Z,62.07
2022-10-26T03:30:30.819Z,62.37
2022-10-26T03:33:01.357Z,62.12
2022-10-26T03:35:31.956Z,61.24
2022-10-26T03:38:02.788Z,61.34
2022-10-26T03:40:33.241Z,61.27
2022-10-26T03:43:04.095Z,61.61
2022-10-26T03:45:34.427Z,61.50
2022-10-26T03:48:05.687Z,60.76
2022-10-26T03:50:36.256Z,60.25
2022-10-26T03:53:07.086Z,60.11
2022-10-26T03:55:37.652Z,59.81
2022-10-26T03:58:08.470Z,60.40
2022-10-26T04:00:38.911Z,61.17
2022-10-26T04:03:09.616Z,61.21
2022-10-26T04:05:40.038Z,60.41
2022-10-26T04:08:10.937Z,60.45
2022-10-26T04:10:41.806Z,61.04
2022-10-26T04:13:12.550Z,60.50
2022-10-26T04:15:43.626Z,60.30
2022-10-26T04:18:14.354Z,60.54
2022-10-26T04:20:44.862Z,60.74
2022-10-26T04:23:16.487Z,60.83
2022-10-26T04:25:47.540Z,60.56
2022-10-26T04:28:18.066Z,60.68
2022-10-26T04:30:48.913Z,60.82
2022-10-26T04:33:21.788Z,60.20
2022-10-26T04:35:52.342Z,59.79
2022-10-26T04:38:22.947Z,58.66
2022-10-26T04:40:53.732Z,60.73
2022-10-26T04:43:24.371Z,65.36
2022-10-26T04:45:57.719Z,64.71
2022-10-26T04:48:28.671Z,63.84
2022-10-26T04:51:01.019Z,62.98
2022-10-26T04:53:31.768Z,61.95
2022-10-26T04:56:02.603Z,60.63
2022-10-26T04:58:33.081Z,60.70
2022-10-26T05:01:03.966Z,61.18
2022-10-26T05:03:34.690Z,60.54
2022-10-26T05:06:05.281Z,59.84
2022-10-26T05:08:35.709Z,60.72
2022-10-26T05:11:06.437Z,61.96
2022-10-26T05:13:37.230Z,62.01
2022-10-26T05:16:09.028Z,62.24
2022-10-26T05:18:39.901Z,62.19
2022-10-26T05:21:10.525Z,61.99
2022-10-26T05:23:41.114Z,61.23
2022-10-26T05:26:11.821Z,60.19
2022-10-26T05:28:42.411Z,60.58
2022-10-26T05:31:13.900Z,60.29
2022-10-26T05:33:44.507Z,59.06
2022-10-26T05:36:15.159Z,61.82
2022-10-26T05:38:45.992Z,66.97
2022-10-26T05:41:16.743Z,66.39
2022-10-26T05:43:48.168Z,65.12
2022-10-26T05:46:19.000Z,63.97
2022-10-26T05:48:49.472Z,62.96
2022-10-26T05:51:20.041Z,61.59
2022-10-26T05:53:54.404Z,61.36
2022-10-26T05:56:35.059Z,60.92
2022-10-26T05:59:05.871Z,60.39
2022-10-26T06:01:41.710Z,60.49
2022-10-26T06:04:18.909Z,60.26
2022-10-26T06:06:53.302Z,59.07
2022-10-26T06:09:24.795Z,59.49
2022-10-26T06:11:55.868Z,63.49
2022-10-26T06:14:27.124Z,64.71
2022-10-26T06:17:04.934Z,63.04
2022-10-26T06:19:41.472Z,62.66
2022-10-26T06:22:18.928Z,62.71
2022-10-26T06:24:53.315Z,62.10
2022-10-26T06:27:30.129Z,60.90
2022-10-26T06:30:02.071Z,60.13
2022-10-26T06:32:34.236Z,60.09
2022-10-26T06:35:10.984Z,60.82
2022-10-26T08:53:53.230Z,60.08
2022-10-26T08:56:25.775Z,63.82
2022-10-26T09:11:08.552Z,57.98
2022-10-26T09:13:44.529Z,60.61
2022-10-26T09:16:19.035Z,63.12
2022-10-26T09:18:57.743Z,60.52
2022-10-26T09:21:41.885Z,56.03
2022-10-26T09:24:15.602Z,58.57
2022-10-26T09:26:54.523Z,61.10
2022-10-26T09:29:28.144Z,62.23
2022-10-26T09:32:00.521Z,58.54
2022-10-26T09:34:33.927Z,60.41
2022-10-26T09:37:13.557Z,61.23
2022-10-26T09:39:48.592Z,59.41
2022-10-26T09:42:21.347Z,54.89
2022-10-26T09:44:55.909Z,57.66
2022-10-26T09:47:31.698Z,60.51
2022-10-26T09:50:05.174Z,62.57
2022-10-26T09:52:36.276Z,61.94
2022-10-26T09:55:07.853Z,57.38
2022-10-26T09:57:38.913Z,58.30
2022-10-26T10:00:13.370Z,59.63
2022-10-26T10:02:45.341Z,60.32
2022-10-26T10:05:39.119Z,61.02
2022-10-26T10:08:19.840Z,60.72
2022-10-26T10:11:00.574Z,58.86
2022-10-26T10:13:32.187Z,60.71
2022-10-26T10:16:05.467Z,60.06
2022-10-26T10:18:36.631Z,61.26
2022-10-26T10:21:07.742Z,62.01
2022-10-26T10:23:39.216Z,58.58
2022-10-26T10:26:12.132Z,58.67
2022-10-26T10:28:44.189Z,60.06
2022-10-26T10:31:28.313Z,61.13
2022-10-26T10:33:59.174Z,61.22
2022-10-26T10:36:30.843Z,57.83
2022-10-26T10:39:02.153Z,56.92
2022-10-26T10:41:36.551Z,58.45
2022-10-26T10:44:09.477Z,60.19
2022-10-26T10:46:39.984Z,61.01
2022-10-26T10:49:28.038Z,61.29
2022-10-26T10:51:59.094Z,62.00
2022-10-26T10:54:31.531Z,61.46
2022-10-26T10:57:07.899Z,58.56
2022-10-26T10:59:43.946Z,56.25
2022-10-26T11:02:44.610Z,56.26
2022-10-26T11:05:27.744Z,58.05
2022-10-26T11:08:02.842Z,59.35
2022-10-26T11:10:35.772Z,60.81
2022-10-26T11:13:08.516Z,59.60
2022-10-26T11:15:40.884Z,58.99
2022-10-26T11:18:14.393Z,58.73
2022-10-26T11:20:48.240Z,59.88
2022-10-26T11:23:22.163Z,60.22
2022-10-26T11:25:54.629Z,60.16
2022-10-26T11:28:40.661Z,59.70
2022-10-26T11:31:14.974Z,60.04
2022-10-26T11:33:48.119Z,60.30
2022-10-26T11:36:22.053Z,59.50
2022-10-26T11:38:57.436Z,57.88
2022-10-26T11:41:32.746Z,57.75
2022-10-26T11:44:06.880Z,56.39
2022-10-26T11:46:39.393Z,56.93
2022-10-26T11:49:14.396Z,57.53
2022-10-26T11:51:48.388Z,57.66
2022-10-26T11:54:22.488Z,57.54
2022-10-26T11:56:54.495Z,57.37
2022-10-26T11:59:28.080Z,58.45
2022-10-26T12:02:03.813Z,57.43
2022-10-26T12:04:36.367Z,56.91
2022-10-26T12:07:10.343Z,56.29
2022-10-26T12:09:42.672Z,57.36
2022-10-26T12:12:19.326Z,56.59
2022-10-26T12:14:52.369Z,55.91
2022-10-26T12:17:26.466Z,56.11
2022-10-26T12:20:00.183Z,56.03
2022-10-26T12:22:33.449Z,56.07
2022-10-26T12:25:02.127Z,55.97
2022-10-26T12:27:34.134Z,56.21
2022-10-26T12:30:24.406Z,56.25
2022-10-26T12:32:56.380Z,55.38
2022-10-26T12:35:37.108Z,55.65
2022-10-26T12:38:29.067Z,55.99
2022-10-26T12:41:15.410Z,56.13
2022-10-26T12:43:46.186Z,55.16
2022-10-26T12:46:32.767Z,54.53
2022-10-26T12:49:03.267Z,53.93
2022-10-26T12:51:44.469Z,54.41
2022-10-26T12:54:33.878Z,53.57
2022-10-26T12:57:10.115Z,53.35
2022-10-26T12:59:44.461Z,53.69
2022-10-26T13:02:32.397Z,54.00
2022-10-26T13:05:32.214Z,54.35
2022-10-26T13:08:04.677Z,54.39
2022-10-26T13:10:36.218Z,54.33
2022-10-26T13:13:07.347Z,53.54
2022-10-26T13:15:39.989Z,50.39
2022-10-26T13:18:11.861Z,47.93
2022-10-26T13:20:53.578Z,47.38
2022-10-26T13:23:27.085Z,46.73
2022-10-26T13:26:04.710Z,45.78
2022-10-26T13:28:43.593Z,45.72
2022-10-26T13:31:18.322Z,43.94
2022-10-26T13:33:52.170Z,44.37
2022-10-26T13:36:28.095Z,45.40
2022-10-26T13:38:59.445Z,44.42
2022-10-26T13:41:33.893Z,43.72
2022-10-26T13:44:06.827Z,43.00
2022-10-26T13:46:38.151Z,42.60
2022-10-26T13:49:10.044Z,42.16
2022-10-26T13:51:44.380Z,41.23
2022-10-26T13:54:24.559Z,41.68
2022-10-26T13:57:02.877Z,42.04
2022-10-26T13:59:35.611Z,41.27
2022-10-26T14:02:15.980Z,40.78
2022-10-26T14:04:49.077Z,40.64
2022-10-26T14:07:23.293Z,39.13
2022-10-26T14:09:57.957Z,39.58
2022-10-26T14:12:29.787Z,40.50
2022-10-26T14:15:02.877Z,41.01
2022-10-26T14:17:34.008Z,41.35
2022-10-26T14:20:04.608Z,41.70
2022-10-26T14:22:35.351Z,41.98
2022-10-26T14:25:26.664Z,41.39
2022-10-26T14:28:21.255Z,41.07
2022-10-26T14:30:52.672Z,41.79
2022-10-26T14:33:27.579Z,42.00
2022-10-26T14:35:58.270Z,42.21
2022-10-26T14:38:30.328Z,42.85
2022-10-26T14:41:01.088Z,42.82
2022-10-26T14:43:32.629Z,42.87
2022-10-26T14:46:03.561Z,43.36
2022-10-26T14:48:35.751Z,42.93
2022-10-26T14:51:08.109Z,43.46
2022-10-26T14:53:40.085Z,43.37
2022-10-26T14:56:22.137Z,43.88
2022-10-26T14:58:53.114Z,44.24
2022-10-26T15:01:33.211Z,44.24
2022-10-26T15:04:06.215Z,44.86
2022-10-26T15:06:44.173Z,45.59
2022-10-26T15:09:40.919Z,46.36
2022-10-26T15:12:21.079Z,47.07
2022-10-26T15:14:52.710Z,47.72
2022-10-26T15:17:27.801Z,48.44
2022-10-26T15:19:59.398Z,48.81
2022-10-26T15:22:32.331Z,49.64
2022-10-26T15:25:04.577Z,50.22
2022-10-26T15:27:35.301Z,50.82
2022-10-26T15:30:13.783Z,51.39
2022-10-26T15:32:44.781Z,51.80
